Time;durP1;ratioP1;P1;durP2;ratioP2;P2;SDS_P1;SDS_P2;PMS_P1;PMS_P2;Temp;Humidity;BMP_temperature;BMP_pressure;BME280_temperature;BME280_humidity;BME280_pressure;Samples;Min_cycle;Max_cycle;Signal;HPM_P1;HPM_P2
2022/05/24 00:01:03;;;;;;;11.50;7.70;;;11.80;99.90;;;;;;5014675;28;20207;-76
2022/05/24 00:03:30;;;;;;;11.97;8.00;;;11.80;99.90;;;;;;5003606;28;20216;-85
2022/05/24 00:05:57;;;;;;;10.97;8.07;;;11.80;99.90;;;;;;5011887;28;20213;-86
2022/05/24 00:08:24;;;;;;;11.73;7.70;;;11.70;99.90;;;;;;4989134;28;20267;-85
2022/05/24 00:10:53;;;;;;;13.93;8.13;;;11.60;99.90;;;;;;5008162;28;20240;-71
2022/05/24 00:13:19;;;;;;;12.57;8.13;;;11.50;99.90;;;;;;4994264;28;20197;-81
2022/05/24 00:15:46;;;;;;;13.17;8.23;;;11.50;99.90;;;;;;4998315;28;20255;-80
2022/05/24 00:18:23;;;;;;;15.97;9.00;;;11.40;99.90;;;;;;5017653;28;20185;-76
2022/05/24 00:20:52;;;;;;;15.97;8.77;;;11.40;99.90;;;;;;4991073;28;20227;-86
2022/05/24 00:23:20;;;;;;;12.73;8.23;;;11.30;99.90;;;;;;5003529;28;20235;-87
2022/05/24 00:25:52;;;;;;;14.03;8.73;;;11.30;99.90;;;;;;4995158;28;20224;-86
2022/05/24 00:28:22;;;;;;;15.10;8.60;;;11.30;99.90;;;;;;4993113;28;20292;-87
2022/05/24 00:30:49;;;;;;;14.33;8.70;;;11.30;99.90;;;;;;4992778;28;20284;-71
2022/05/24 00:33:17;;;;;;;13.13;8.80;;;11.20;99.90;;;;;;4992668;28;20216;-84
2022/05/24 00:35:45;;;;;;;15.87;9.07;;;11.10;99.90;;;;;;4993067;28;20205;-85
2022/05/24 00:38:15;;;;;;;12.67;8.20;;;11.10;99.90;;;;;;4992454;28;20201;-92
2022/05/24 00:41:11;;;;;;;11.47;8.10;;;11.10;99.90;;;;;;4981352;28;20235;-86
2022/05/24 00:43:55;;;;;;;12.23;7.77;;;11.10;99.90;;;;;;5001211;28;20233;-87
2022/05/24 00:46:29;;;;;;;13.63;7.57;;;11.00;99.90;;;;;;5001716;28;20231;-86
2022/05/24 00:49:01;;;;;;;11.10;7.73;;;11.00;99.90;;;;;;4976862;28;20307;-82
2022/05/24 00:51:47;;;;;;;12.33;7.40;;;11.00;99.90;;;;;;4993145;28;20200;-86
2022/05/24 00:54:15;;;;;;;13.20;7.80;;;11.00;99.90;;;;;;4992622;28;20244;-85
2022/05/24 00:56:58;;;;;;;13.30;7.90;;;10.90;99.90;;;;;;4992457;28;20663;-83
2022/05/24 00:59:37;;;;;;;12.67;7.83;;;10.90;99.90;;;;;;4992752;28;20563;-82
2022/05/24 01:02:05;;;;;;;13.37;8.43;;;10.80;99.90;;;;;;4993221;28;20677;-84
2022/05/24 01:04:33;;;;;;;15.03;9.30;;;10.80;99.90;;;;;;4992802;28;20251;-80
2022/05/24 01:06:59;;;;;;;12.50;8.20;;;10.90;99.90;;;;;;4996560;28;20295;-73
2022/05/24 01:09:41;;;;;;;15.93;8.70;;;10.90;99.90;;;;;;4992509;28;20300;-79
2022/05/24 01:12:17;;;;;;;16.47;9.13;;;10.80;99.90;;;;;;4992607;28;20204;-82
2022/05/24 01:14:44;;;;;;;13.97;9.10;;;10.70;99.90;;;;;;4976509;28;20300;-88
2022/05/24 01:17:12;;;;;;;12.83;8.83;;;10.80;99.90;;;;;;4992439;28;20211;-78
2022/05/24 01:19:46;;;;;;;17.13;9.20;;;10.70;99.90;;;;;;4993810;28;20272;-89
2022/05/24 01:22:34;;;;;;;16.07;9.57;;;10.60;99.90;;;;;;4998094;28;20193;-85
2022/05/24 01:25:32;;;;;;;14.43;9.00;;;10.60;99.90;;;;;;4992521;28;20248;-88
2022/05/24 01:28:04;;;;;;;13.33;9.13;;;10.60;99.90;;;;;;5001017;28;20225;-68
2022/05/24 01:30:31;;;;;;;15.00;9.03;;;10.60;99.90;;;;;;5004648;28;20220;-89
2022/05/24 01:38:31;;;;;;;15.40;9.37;;;10.40;99.90;;;;;;4993775;28;20197;-81
2022/05/24 01:40:59;;;;;;;13.60;9.07;;;10.40;99.90;;;;;;4993648;28;20303;-86
2022/05/24 01:43:28;;;;;;;15.33;8.87;;;10.40;99.90;;;;;;4993726;28;20670;-87
2022/05/24 01:46:00;;;;;;;15.20;8.97;;;10.40;99.90;;;;;;4992671;28;20217;-86
2022/05/24 01:48:40;;;;;;;13.33;8.83;;;10.40;99.90;;;;;;4994003;28;20283;-87
2022/05/24 01:51:10;;;;;;;16.20;8.90;;;10.30;99.90;;;;;;4992893;28;20208;-84
2022/05/24 01:53:44;;;;;;;14.90;9.00;;;10.40;99.90;;;;;;4992644;28;20304;-80
2022/05/24 01:56:59;;;;;;;15.00;8.47;;;10.30;99.90;;;;;;4992668;28;20203;-85
2022/05/24 01:59:27;;;;;;;12.83;8.40;;;10.30;99.90;;;;;;4995681;28;20303;-86
2022/05/24 02:01:57;;;;;;;13.90;8.80;;;10.20;99.90;;;;;;4996372;28;20786;-71
2022/05/24 02:04:26;;;;;;;13.57;9.03;;;10.20;99.90;;;;;;4997702;28;20221;-70
2022/05/24 02:07:05;;;;;;;13.93;9.40;;;10.20;99.90;;;;;;4998179;28;20232;-87
2022/05/24 02:09:34;;;;;;;15.83;9.47;;;10.10;99.90;;;;;;5002787;28;20770;-66
2022/05/24 02:12:09;;;;;;;14.00;9.27;;;10.10;99.90;;;;;;5003835;28;20725;-66
2022/05/24 02:14:40;;;;;;;14.77;9.67;;;10.10;99.90;;;;;;5011532;28;20598;-67
2022/05/24 02:17:12;;;;;;;14.23;9.53;;;10.10;99.90;;;;;;4993917;28;20259;-67
2022/05/24 02:19:46;;;;;;;13.27;9.63;;;10.10;99.90;;;;;;4991098;28;20275;-68
2022/05/24 02:22:20;;;;;;;14.17;9.77;;;10.10;99.90;;;;;;5013059;28;20197;-67
2022/05/24 02:25:06;;;;;;;14.77;10.10;;;10.10;99.90;;;;;;5002461;28;20240;-89
2022/05/24 02:27:40;;;;;;;15.93;10.23;;;10.10;99.90;;;;;;4998062;28;20229;-90
2022/05/24 02:30:07;;;;;;;16.23;10.17;;;10.00;99.90;;;;;;4992568;28;20590;-71
2022/05/24 02:32:34;;;;;;;15.60;9.90;;;10.00;99.90;;;;;;4995613;28;20205;-76
2022/05/24 02:35:01;;;;;;;16.97;9.70;;;10.00;99.90;;;;;;4996658;28;20651;-87
2022/05/24 02:37:28;;;;;;;15.63;9.00;;;10.00;99.90;;;;;;4996822;28;20197;-85
2022/05/24 02:42:40;;;;;;;16.33;9.63;;;10.00;99.90;;;;;;5000782;28;20181;-66
2022/05/24 02:45:07;;;;;;;16.03;9.47;;;9.90;99.90;;;;;;5008627;28;20292;-83
2022/05/24 02:47:34;;;;;;;13.53;8.87;;;9.90;99.90;;;;;;4998927;28;20277;-81
2022/05/24 02:50:01;;;;;;;13.23;8.93;;;9.90;99.90;;;;;;4994843;28;20205;-67
2022/05/24 02:52:28;;;;;;;14.07;8.77;;;9.80;99.90;;;;;;4995071;28;20247;-80
2022/05/24 02:54:56;;;;;;;11.97;7.77;;;9.90;99.90;;;;;;4994428;28;20205;-81
2022/05/24 02:57:23;;;;;;;13.80;8.53;;;9.90;99.90;;;;;;4994784;28;20295;-71
2022/05/24 02:59:50;;;;;;;13.13;8.37;;;9.90;99.90;;;;;;4994786;28;20295;-83
2022/05/24 03:02:17;;;;;;;81.60;18.80;;;9.90;99.90;;;;;;4995037;28;20295;-87
2022/05/24 03:04:44;;;;;;;12.83;8.83;;;9.90;99.90;;;;;;5000215;28;20727;-73
2022/05/24 03:09:57;;;;;;;10.50;7.90;;;9.90;99.90;;;;;;4994282;28;20201;-69
2022/05/24 03:15:10;;;;;;;11.70;8.80;;;9.90;99.90;;;;;;4994713;28;20637;-71
2022/05/24 03:17:36;;;;;;;12.67;9.00;;;9.90;99.90;;;;;;4994511;28;20371;-88
2022/05/24 03:20:04;;;;;;;11.63;8.20;;;9.90;99.90;;;;;;4994945;28;20204;-80
2022/05/24 03:22:31;;;;;;;12.10;8.67;;;10.00;99.90;;;;;;4994593;28;20288;-79
2022/05/24 03:24:58;;;;;;;12.23;8.47;;;10.00;99.90;;;;;;4994319;28;20291;-69
2022/05/24 03:27:25;;;;;;;12.67;9.07;;;10.10;99.90;;;;;;4994853;28;20336;-87
2022/05/24 03:29:52;;;;;;;12.30;8.73;;;10.20;99.90;;;;;;4994363;28;20203;-87
2022/05/24 03:32:18;;;;;;;13.00;9.60;;;10.20;99.90;;;;;;5004172;28;20303;-95
2022/05/24 03:34:46;;;;;;;14.40;9.90;;;10.20;99.90;;;;;;4999940;28;20193;-93
2022/05/24 03:37:13;;;;;;;13.20;9.13;;;10.20;99.90;;;;;;5001913;28;20283;-75
2022/05/24 03:39:40;;;;;;;13.33;9.47;;;10.30;99.90;;;;;;5003120;28;20284;-90
2022/05/24 03:42:07;;;;;;;13.73;9.57;;;10.30;99.90;;;;;;4998021;28;20221;-74
2022/05/24 03:44:34;;;;;;;14.27;9.33;;;10.30;99.90;;;;;;4995565;28;20232;-93
2022/05/24 03:47:02;;;;;;;13.40;9.87;;;10.30;99.90;;;;;;4995588;28;20290;-88
2022/05/24 03:49:29;;;;;;;15.07;10.30;;;10.40;99.90;;;;;;4996933;28;20288;-85
2022/05/24 03:51:55;;;;;;;14.10;9.77;;;10.40;99.90;;;;;;4997295;28;20291;-93
2022/05/24 03:54:22;;;;;;;15.60;10.63;;;10.40;99.90;;;;;;4996743;28;20276;-93
2022/05/24 03:59:35;;;;;;;15.40;10.20;;;10.50;99.90;;;;;;4993708;28;20232;-84
2022/05/24 04:02:01;;;;;;;15.07;10.37;;;10.60;99.90;;;;;;4994049;28;20685;-89
2022/05/24 04:04:29;;;;;;;15.90;10.60;;;10.60;99.90;;;;;;4993909;28;20221;-90
2022/05/24 04:06:56;;;;;;;14.40;10.23;;;10.70;99.90;;;;;;4995625;28;20383;-89
2022/05/24 04:09:23;;;;;;;15.53;10.23;;;10.70;99.90;;;;;;4995429;28;20291;-89
2022/05/24 04:11:54;;;;;;;13.23;10.20;;;10.70;99.90;;;;;;4997551;28;20585;-90
2022/05/24 04:14:21;;;;;;;17.27;10.40;;;10.70;99.90;;;;;;4996227;28;20216;-90
2022/05/24 04:16:48;;;;;;;14.23;10.57;;;10.80;99.90;;;;;;5001621;28;20216;-72
2022/05/24 04:19:15;;;;;;;14.70;10.40;;;10.80;99.90;;;;;;5005699;28;20211;-90
2022/05/24 04:21:43;;;;;;;14.97;10.17;;;10.80;99.90;;;;;;4999399;28;20295;-87
2022/05/24 04:24:10;;;;;;;16.17;10.57;;;10.90;99.90;;;;;;4999078;28;20204;-69
2022/05/24 04:26:36;;;;;;;14.13;10.20;;;10.90;99.90;;;;;;5002829;28;20354;-73
2022/05/24 04:29:04;;;;;;;13.10;10.20;;;11.00;99.90;;;;;;4999286;28;20193;-66
2022/05/24 04:31:30;;;;;;;15.27;10.20;;;11.10;99.90;;;;;;5008183;28;20201;-79
2022/05/24 04:33:57;;;;;;;14.23;10.13;;;11.20;99.90;;;;;;4993371;28;20203;-66
2022/05/24 04:36:24;;;;;;;14.40;10.33;;;11.30;99.90;;;;;;4992945;28;20200;-71
2022/05/24 04:38:51;;;;;;;13.93;10.53;;;11.40;99.90;;;;;;4992245;28;20224;-68
2022/05/24 04:44:03;;;;;;;17.37;10.97;;;11.60;99.90;;;;;;4979646;28;20291;-84
2022/05/24 04:47:06;;;;;;;12.93;10.10;;;11.70;99.90;;;;;;4992568;28;20268;-85
2022/05/24 04:49:17;;;;;;;12.93;9.77;;;11.70;99.90;;;;;;4993093;28;20215;-87
2022/05/24 04:51:44;;;;;;;12.93;10.10;;;11.90;99.90;;;;;;4992808;28;20205;-88
2022/05/24 04:54:11;;;;;;;13.63;9.27;;;11.90;99.90;;;;;;4993524;28;20651;-80
2022/05/24 04:56:38;;;;;;;15.47;9.57;;;12.00;99.90;;;;;;4994003;28;20201;-87
2022/05/24 04:59:05;;;;;;;16.13;10.50;;;12.10;99.90;;;;;;4993123;28;20280;-71
2022/05/24 05:01:31;;;;;;;14.53;10.33;;;12.20;99.90;;;;;;4992603;28;20193;-84
2022/05/24 05:03:59;;;;;;;14.67;9.80;;;12.30;99.90;;;;;;4992268;28;20208;-72
2022/05/24 05:06:26;;;;;;;15.07;9.30;;;12.50;99.90;;;;;;4999343;28;20276;-72
2022/05/24 05:08:53;;;;;;;13.43;9.60;;;12.60;99.90;;;;;;5009772;28;20201;-66
2022/05/24 05:11:20;;;;;;;13.33;9.63;;;12.60;99.90;;;;;;5012866;28;20220;-87
2022/05/24 05:13:47;;;;;;;13.60;9.40;;;12.70;99.90;;;;;;4998257;28;20212;-67
2022/05/24 05:16:14;;;;;;;12.90;8.87;;;12.80;99.90;;;;;;5015166;28;20321;-68
2022/05/24 05:18:41;;;;;;;12.80;8.97;;;12.90;99.90;;;;;;5001961;28;20292;-68
2022/05/24 05:21:08;;;;;;;12.13;9.10;;;13.00;99.90;;;;;;4994811;28;20230;-83
2022/05/24 05:23:35;;;;;;;12.00;9.20;;;13.10;99.90;;;;;;4993924;28;20231;-87
2022/05/24 05:26:02;;;;;;;12.83;8.63;;;13.20;99.90;;;;;;4991983;28;20323;-88
2022/05/24 05:28:29;;;;;;;12.43;8.40;;;13.30;99.90;;;;;;4992826;28;20650;-90
2022/05/24 05:33:41;;;;;;;11.90;8.43;;;13.50;99.90;;;;;;4992716;28;20678;-87
2022/05/24 05:36:09;;;;;;;15.67;8.73;;;13.70;99.90;;;;;;4993460;28;20291;-89
2022/05/24 05:38:36;;;;;;;11.27;7.80;;;13.90;99.90;;;;;;4992914;28;20225;-84
2022/05/24 05:41:04;;;;;;;13.03;8.10;;;13.90;99.90;;;;;;4992522;28;20208;-83
2022/05/24 05:43:31;;;;;;;9.53;6.80;;;14.00;99.90;;;;;;4992175;28;20196;-86
2022/05/24 05:46:04;;;;;;;9.17;6.67;;;14.10;99.90;;;;;;4994062;28;20270;-84
2022/05/24 05:48:31;;;;;;;8.90;6.60;;;14.10;99.90;;;;;;4992315;28;20245;-85
2022/05/24 05:50:58;;;;;;;9.17;7.40;;;14.20;99.90;;;;;;4992433;28;20673;-79
2022/05/24 05:53:25;;;;;;;9.50;6.70;;;14.30;99.90;;;;;;4994392;28;20295;-78
2022/05/24 05:55:51;;;;;;;10.50;6.47;;;14.40;99.90;;;;;;4991764;28;20234;-69
2022/05/24 05:58:18;;;;;;;10.57;6.90;;;14.60;99.90;;;;;;4997898;28;20231;-76
2022/05/24 06:00:48;;;;;;;10.63;6.90;;;14.70;99.90;;;;;;4995527;28;20200;-68
2022/05/24 06:03:19;;;;;;;10.10;6.90;;;14.80;99.90;;;;;;4993532;28;20197;-88
2022/05/24 06:05:48;;;;;;;8.53;6.37;;;14.80;99.90;;;;;;4995211;28;20255;-73
2022/05/24 06:08:16;;;;;;;7.37;6.00;;;14.90;99.90;;;;;;4996830;28;20227;-69
2022/05/24 06:10:47;;;;;;;9.23;6.00;;;15.00;99.90;;;;;;4995915;28;20214;-81
2022/05/24 06:13:14;;;;;;;9.20;5.97;;;15.00;99.90;;;;;;4996147;28;20763;-86
2022/05/24 06:15:41;;;;;;;8.77;5.70;;;15.10;99.90;;;;;;4997358;28;20748;-77
2022/05/24 06:18:08;;;;;;;9.83;6.20;;;15.10;99.90;;;;;;4995404;28;20288;-83
2022/05/24 06:20:35;;;;;;;8.60;5.70;;;15.20;99.90;;;;;;4995613;28;20193;-83
2022/05/24 06:23:02;;;;;;;8.00;5.70;;;15.30;99.90;;;;;;4995157;28;20292;-86
2022/05/24 06:25:30;;;;;;;6.33;5.10;;;15.30;99.90;;;;;;4996400;28;20224;-83
2022/05/24 06:27:59;;;;;;;7.43;5.40;;;15.50;99.90;;;;;;4996617;28;20234;-84
2022/05/24 06:30:26;;;;;;;5.87;4.63;;;15.50;99.90;;;;;;4997796;28;20222;-86
2022/05/24 06:32:53;;;;;;;5.93;4.23;;;15.50;99.90;;;;;;5010875;28;20524;-78
2022/05/24 06:35:20;;;;;;;10.67;4.40;;;15.70;99.90;;;;;;5010911;28;20215;-90
2022/05/24 06:37:48;;;;;;;8.43;4.70;;;15.80;99.90;;;;;;5012347;28;20200;-69
2022/05/24 06:40:18;;;;;;;5.17;4.03;;;15.90;99.90;;;;;;5009483;28;20201;-89
2022/05/24 06:42:45;;;;;;;5.50;4.07;;;15.90;99.90;;;;;;5001415;28;20213;-80
2022/05/24 06:45:12;;;;;;;5.60;3.80;;;16.00;99.90;;;;;;4995198;28;20300;-88
2022/05/24 06:47:40;;;;;;;5.97;3.80;;;16.20;99.90;;;;;;4995832;28;20235;-69
2022/05/24 06:50:09;;;;;;;5.67;3.47;;;16.30;99.90;;;;;;4993486;28;20201;-70
2022/05/24 06:52:36;;;;;;;5.10;3.30;;;16.40;99.90;;;;;;4994831;28;20208;-69
2022/05/24 06:55:05;;;;;;;5.23;3.37;;;16.30;99.90;;;;;;4995703;28;20290;-85
2022/05/24 06:57:32;;;;;;;7.63;3.60;;;16.50;99.90;;;;;;4997932;28;20725;-73
2022/05/24 07:02:45;;;;;;;4.70;3.40;;;16.60;99.90;;;;;;4994652;28;20617;-82
2022/05/24 07:05:16;;;;;;;5.70;3.30;;;16.80;99.90;;;;;;4995003;28;20232;-86
2022/05/24 07:07:43;;;;;;;4.07;3.00;;;16.80;99.90;;;;;;4995065;28;20323;-81
2022/05/24 07:10:15;;;;;;;5.83;3.30;;;17.00;99.90;;;;;;4995348;28;20279;-81
2022/05/24 07:12:42;;;;;;;3.97;3.03;;;17.00;99.90;;;;;;4996975;28;20295;-78
2022/05/24 07:15:09;;;;;;;4.20;3.00;;;17.00;99.90;;;;;;4994413;28;20274;-80
2022/05/24 07:17:37;;;;;;;4.93;3.20;;;17.00;99.90;;;;;;4978421;28;20235;-69
2022/05/24 07:20:04;;;;;;;3.17;2.47;;;17.20;99.90;;;;;;4994863;28;20193;-83
2022/05/24 07:22:31;;;;;;;4.57;3.23;;;17.30;99.90;;;;;;4994355;28;20236;-81
2022/05/24 07:24:58;;;;;;;7.00;2.80;;;17.50;99.90;;;;;;4993324;28;20242;-72
2022/05/24 07:27:25;;;;;;;5.10;2.70;;;17.60;99.90;;;;;;4993546;28;20264;-73
2022/05/24 07:29:52;;;;;;;3.50;2.73;;;17.70;99.90;;;;;;4992557;28;20229;-74
2022/05/24 07:32:19;;;;;;;4.33;2.60;;;17.80;99.90;;;;;;4995116;28;20205;-68
2022/05/24 07:34:45;;;;;;;3.63;2.53;;;18.00;99.90;;;;;;4994534;28;20262;-69
2022/05/24 07:37:16;;;;;;;4.60;2.60;;;18.10;99.90;;;;;;4992723;28;20231;-71
2022/05/24 07:39:44;;;;;;;5.40;2.60;;;18.10;99.90;;;;;;4992932;28;20197;-73
2022/05/24 07:47:43;;;;;;;6.30;2.90;;;18.30;99.90;;;;;;4993102;28;20279;-67
2022/05/24 07:50:10;;;;;;;5.50;2.60;;;18.40;99.90;;;;;;4993240;28;20600;-67
2022/05/24 07:52:37;;;;;;;3.27;2.40;;;18.40;99.90;;;;;;4994711;28;20228;-66
2022/05/24 07:55:04;;;;;;;7.57;2.90;;;18.50;99.90;;;;;;4994595;28;20197;-66
2022/05/24 07:57:31;;;;;;;6.47;2.50;;;18.60;99.90;;;;;;4993503;28;20754;-66
2022/05/24 08:00:05;;;;;;;3.73;2.60;;;18.70;99.90;;;;;;4995306;28;20273;-80
2022/05/24 08:02:32;;;;;;;3.53;2.57;;;18.90;99.90;;;;;;4993360;28;20543;-66
2022/05/24 08:04:59;;;;;;;7.77;2.40;;;19.20;99.90;;;;;;4998420;28;20197;-76
2022/05/24 08:07:25;;;;;;;3.87;2.77;;;19.40;99.90;;;;;;4996533;28;20221;-66
2022/05/24 08:09:52;;;;;;;3.93;2.97;;;19.60;99.90;;;;;;5005014;28;20247;-66
2022/05/24 08:12:19;;;;;;;5.13;2.70;;;19.70;99.90;;;;;;5002043;28;20268;-67
2022/05/24 08:14:46;;;;;;;6.40;2.70;;;19.90;99.90;;;;;;4993261;28;20255;-86
2022/05/24 08:17:14;;;;;;;7.67;2.97;;;19.80;99.90;;;;;;4993688;28;20197;-80
2022/05/24 08:19:40;;;;;;;9.30;3.00;;;20.00;99.70;;;;;;4992771;28;20234;-68
2022/05/24 08:22:08;;;;;;;8.10;3.10;;;20.20;98.50;;;;;;4992995;28;20291;-81
2022/05/24 08:24:34;;;;;;;7.87;3.07;;;20.30;97.00;;;;;;4992610;28;20725;-79
2022/05/24 08:27:02;;;;;;;4.03;2.77;;;20.40;96.70;;;;;;4992087;28;20339;-67
2022/05/24 08:29:28;;;;;;;8.03;2.60;;;20.70;95.60;;;;;;4993110;28;20224;-68
2022/05/24 08:31:55;;;;;;;3.23;2.50;;;20.80;94.50;;;;;;4994182;28;20267;-67
2022/05/24 08:34:22;;;;;;;5.33;2.60;;;20.80;93.70;;;;;;4992518;28;20240;-80
2022/05/24 08:36:49;;;;;;;3.53;2.73;;;20.50;93.80;;;;;;4992163;28;20197;-80
2022/05/24 08:39:16;;;;;;;6.30;2.37;;;20.30;94.10;;;;;;4992834;28;20208;-80
2022/05/24 08:42:06;;;;;;;5.93;2.30;;;20.20;94.50;;;;;;4991599;28;20340;-78
2022/05/24 08:50:18;;;;;;;4.17;2.43;;;20.40;93.10;;;;;;4990435;28;20229;-66
2022/05/24 08:52:59;;;;;;;4.30;2.60;;;20.50;94.00;;;;;;4992896;28;20686;-74
2022/05/24 08:55:27;;;;;;;5.73;2.47;;;20.70;93.80;;;;;;4992809;28;20197;-74
2022/05/24 08:57:57;;;;;;;8.97;2.70;;;21.00;94.00;;;;;;4992765;28;20271;-65
2022/05/24 09:00:39;;;;;;;4.50;2.60;;;21.30;93.40;;;;;;4991869;28;20201;-77
2022/05/24 09:03:09;;;;;;;3.33;2.47;;;21.90;92.10;;;;;;4992555;28;20642;-75
2022/05/24 09:05:39;;;;;;;5.47;2.80;;;22.20;91.10;;;;;;4991465;28;20236;-74
2022/05/24 09:08:24;;;;;;;5.60;2.57;;;22.30;90.40;;;;;;4992536;28;20225;-72
2022/05/24 09:11:16;;;;;;;8.23;2.60;;;22.40;88.40;;;;;;4992329;28;20201;-79
2022/05/24 09:14:04;;;;;;;5.60;2.60;;;22.50;85.30;;;;;;4990809;28;20301;-70
2022/05/24 09:19:55;;;;;;;3.10;2.80;;;22.60;85.10;;;;;;4994247;28;20219;-76
2022/05/24 09:22:22;;;;;;;9.27;3.20;;;22.60;83.50;;;;;;5011102;28;20601;-67
2022/05/24 09:24:57;;;;;;;5.67;2.47;;;22.70;84.20;;;;;;5010955;28;20239;-77
2022/05/24 09:27:28;;;;;;;5.90;2.80;;;23.20;83.90;;;;;;5010834;28;20326;-75
2022/05/24 09:30:21;;;;;;;5.00;2.80;;;23.10;80.50;;;;;;5010975;28;20211;-75
2022/05/24 09:32:49;;;;;;;4.17;2.73;;;22.80;80.90;;;;;;4995066;28;20236;-78
2022/05/24 09:35:16;;;;;;;6.17;2.50;;;23.00;79.80;;;;;;5011852;28;20193;-78
2022/05/24 09:38:02;;;;;;;6.43;2.87;;;23.20;80.30;;;;;;4994186;28;20211;-76
2022/05/24 09:40:30;;;;;;;5.47;2.67;;;23.00;78.00;;;;;;5013597;28;20290;-75
2022/05/24 09:43:23;;;;;;;5.10;2.83;;;22.80;79.20;;;;;;4996514;28;20239;-70
2022/05/24 09:46:18;;;;;;;5.10;2.80;;;23.30;79.90;;;;;;4992466;28;20189;-75
2022/05/24 09:49:04;;;;;;;5.40;3.15;;;23.70;78.40;;;;;;4981158;28;20193;-68
2022/05/24 09:51:39;;;;;;;8.30;3.03;;;23.90;74.80;;;;;;5024153;28;20236;-68
2022/05/24 09:54:18;;;;;;;4.03;2.53;;;23.70;75.10;;;;;;5007378;28;20216;-73
2022/05/24 09:57:08;;;;;;;5.73;2.70;;;24.10;75.10;;;;;;4994542;28;20705;-68
2022/05/24 09:59:40;;;;;;;4.22;2.60;;;23.80;73.20;;;;;;4994733;28;20663;-67
2022/05/24 10:02:31;;;;;;;3.60;2.70;;;23.20;74.00;;;;;;4994726;28;20197;-66
2022/05/24 10:05:01;;;;;;;3.67;2.70;;;23.20;75.40;;;;;;4994469;28;20204;-67
2022/05/24 10:07:31;;;;;;;3.30;2.50;;;23.30;74.70;;;;;;4996107;28;20223;-68
2022/05/24 10:10:12;;;;;;;3.33;2.53;;;23.60;74.30;;;;;;4994550;28;20702;-69
2022/05/24 10:12:57;;;;;;;3.00;2.53;;;23.60;70.90;;;;;;4994654;28;20296;-66
2022/05/24 10:15:55;;;;;;;3.23;2.40;;;22.80;72.90;;;;;;4994598;28;20251;-66
2022/05/24 10:18:37;;;;;;;2.80;2.30;;;22.40;74.20;;;;;;4994417;28;20651;-78
2022/05/24 10:21:29;;;;;;;3.70;2.17;;;22.30;74.50;;;;;;5012372;28;20295;-77
2022/05/24 10:24:28;;;;;;;3.37;2.40;;;22.50;74.40;;;;;;4994150;28;20247;-83
2022/05/24 10:27:03;;;;;;;5.77;2.40;;;22.60;74.30;;;;;;4995566;28;20664;-70
2022/05/24 10:29:33;;;;;;;6.53;2.40;;;22.50;74.20;;;;;;4994464;28;20238;-67
2022/05/24 10:38:28;;;;;;;4.00;2.10;;;22.40;76.80;;;;;;4994369;28;20236;-82
2022/05/24 10:41:14;;;;;;;2.63;2.10;;;22.10;75.50;;;;;;4995986;28;20639;-71
2022/05/24 10:43:53;;;;;;;6.00;2.37;;;22.30;75.90;;;;;;4993898;28;20224;-79
2022/05/24 10:46:46;;;;;;;4.03;2.47;;;22.70;75.60;;;;;;4986898;28;20299;-70
2022/05/24 10:49:27;;;;;;;4.13;2.30;;;22.90;73.70;;;;;;4994559;28;20591;-76
2022/05/24 10:52:15;;;;;;;4.17;2.40;;;22.70;73.50;;;;;;4999020;28;20662;-65
2022/05/24 10:54:58;;;;;;;3.23;2.20;;;22.70;73.90;;;;;;4998665;28;20208;-72
2022/05/24 10:57:30;;;;;;;5.47;2.30;;;22.70;73.30;;;;;;4996540;28;20243;-84
2022/05/24 11:00:15;;;;;;;4.83;2.23;;;22.70;73.90;;;;;;4999703;28;20189;-83
2022/05/24 11:03:14;;;;;;;3.03;2.40;;;22.70;72.60;;;;;;4994208;28;20243;-77
2022/05/24 11:05:55;;;;;;;2.50;2.20;;;22.30;74.20;;;;;;4993841;28;20247;-82
2022/05/24 11:08:50;;;;;;;4.13;2.40;;;22.30;75.10;;;;;;4994852;28;20300;-78
2022/05/24 11:11:53;;;;;;;4.27;2.40;;;22.60;73.40;;;;;;4993668;28;20201;-75
2022/05/24 11:14:42;;;;;;;3.87;2.13;;;22.50;74.10;;;;;;4972480;28;20304;-82
2022/05/24 11:17:11;;;;;;;2.63;2.20;;;22.40;73.00;;;;;;4956209;28;20284;-67
2022/05/24 11:19:44;;;;;;;3.37;2.23;;;22.20;73.50;;;;;;4957102;28;20224;-78
2022/05/24 11:22:12;;;;;;;4.03;2.20;;;21.80;74.80;;;;;;4961488;28;20206;-65
2022/05/24 11:24:52;;;;;;;4.80;2.50;;;21.60;74.30;;;;;;4938250;29;20236;-73
2022/05/24 11:27:36;;;;;;;7.80;2.43;;;21.50;75.30;;;;;;4962057;28;20340;-76
2022/05/24 11:30:34;;;;;;;4.83;2.30;;;21.60;76.00;;;;;;4972644;28;20213;-78
2022/05/24 11:33:05;;;;;;;5.57;2.27;;;21.50;77.00;;;;;;4968447;28;20667;-77
2022/05/24 11:35:35;;;;;;;3.57;2.00;;;21.50;76.40;;;;;;4956731;28;20198;-79
2022/05/24 11:38:16;;;;;;;2.90;2.10;;;21.40;74.80;;;;;;4972517;28;20201;-83
2022/05/24 11:41:17;;;;;;;2.47;2.20;;;21.40;75.40;;;;;;4956926;28;20208;-76
2022/05/24 11:43:44;;;;;;;2.63;2.00;;;21.40;75.00;;;;;;4971990;28;20209;-73
2022/05/24 11:46:33;;;;;;;3.33;2.40;;;21.50;75.40;;;;;;4972601;28;20229;-72
2022/05/24 11:49:24;;;;;;;4.80;2.43;;;21.60;76.00;;;;;;4958106;28;20237;-74
2022/05/24 11:51:52;;;;;;;5.00;2.40;;;21.80;75.80;;;;;;4976238;28;20636;-74
2022/05/24 11:54:19;;;;;;;8.00;2.37;;;22.00;76.20;;;;;;4990213;28;20215;-76
2022/05/24 11:57:01;;;;;;;2.73;2.30;;;22.30;76.80;;;;;;4974532;28;20205;-69
2022/05/24 11:59:40;;;;;;;2.97;2.20;;;22.50;73.90;;;;;;5001188;28;20200;-67
2022/05/24 12:02:26;;;;;;;3.40;2.07;;;22.30;72.60;;;;;;4992953;28;20280;-66
2022/05/24 12:07:54;;;;;;;3.10;2.10;;;22.30;74.10;;;;;;4992566;28;20213;-75
2022/05/24 12:10:21;;;;;;;4.07;2.13;;;22.50;73.60;;;;;;4994078;28;20271;-78
2022/05/24 12:13:02;;;;;;;2.97;2.20;;;22.50;72.40;;;;;;4991845;28;20342;-76
2022/05/24 12:15:32;;;;;;;10.57;2.70;;;22.70;71.60;;;;;;4993154;28;20259;-70
2022/05/24 12:18:02;;;;;;;3.93;2.17;;;22.70;71.30;;;;;;4992497;28;20823;-70
2022/05/24 12:20:35;;;;;;;5.73;2.30;;;22.90;81.60;;;;;;4991891;28;20232;-72
2022/05/24 12:23:08;;;;;;;5.50;2.20;;;22.80;75.70;;;;;;4992072;28;20651;-63
2022/05/24 12:25:54;;;;;;;4.10;2.30;;;22.70;75.20;;;;;;4992005;28;20216;-64
2022/05/24 12:28:23;;;;;;;3.00;2.20;;;22.60;75.00;;;;;;4993473;28;20319;-70
2022/05/24 12:30:51;;;;;;;4.33;2.47;;;22.30;76.20;;;;;;5013358;28;20235;-71
2022/05/24 12:33:35;;;;;;;4.97;2.40;;;22.10;75.50;;;;;;5011670;28;20203;-64
2022/05/24 12:36:05;;;;;;;3.73;2.30;;;21.90;78.30;;;;;;5011777;28;20219;-66
2022/05/24 12:38:37;;;;;;;4.23;2.60;;;21.80;78.70;;;;;;5028031;28;20290;-64
2022/05/24 12:41:22;;;;;;;2.73;2.00;;;21.80;80.50;;;;;;5011554;28;20291;-66
2022/05/24 12:44:18;;;;;;;3.17;2.40;;;21.70;78.70;;;;;;4999581;28;20211;-65
2022/05/24 12:46:56;;;;;;;4.47;2.00;;;21.70;78.80;;;;;;4981066;28;20633;-66
2022/05/24 12:49:27;;;;;;;6.17;2.30;;;21.70;78.80;;;;;;4993173;28;20235;-70
2022/05/24 12:52:01;;;;;;;3.70;1.93;;;21.60;79.90;;;;;;4991832;28;20196;-72
2022/05/24 12:54:32;;;;;;;2.37;2.10;;;21.60;80.00;;;;;;4991452;28;20229;-71
2022/05/24 12:57:21;;;;;;;3.10;2.00;;;21.60;81.80;;;;;;4990784;28;20291;-72
2022/05/24 13:00:10;;;;;;;5.40;2.00;;;21.60;79.80;;;;;;4968699;28;20201;-66
2022/05/24 13:02:43;;;;;;;4.23;1.80;;;21.30;75.10;;;;;;4973029;28;20600;-70
2022/05/24 13:05:23;;;;;;;3.23;1.90;;;21.20;77.60;;;;;;4972144;28;20301;-68
2022/05/24 13:07:50;;;;;;;3.20;1.80;;;21.20;77.30;;;;;;4971929;28;20300;-67
2022/05/24 13:10:23;;;;;;;1.97;1.70;;;21.20;78.30;;;;;;4972210;28;20312;-76
2022/05/24 13:12:57;;;;;;;3.57;1.80;;;21.10;77.70;;;;;;4991629;28;20229;-68
2022/05/24 13:15:29;;;;;;;3.20;1.70;;;21.20;79.30;;;;;;4990182;28;20264;-72
2022/05/24 13:18:06;;;;;;;7.30;1.83;;;21.10;78.80;;;;;;4991225;28;20272;-71
2022/05/24 13:20:37;;;;;;;2.40;1.90;;;21.00;78.00;;;;;;4998782;28;20291;-70
2022/05/24 13:23:21;;;;;;;2.20;1.83;;;20.90;80.50;;;;;;5002512;28;20196;-71
2022/05/24 13:25:57;;;;;;;3.87;1.90;;;20.90;80.80;;;;;;4987873;28;20292;-70
2022/05/24 13:28:36;;;;;;;4.47;1.90;;;21.00;82.00;;;;;;4990794;28;20224;-72
2022/05/24 13:33:59;;;;;;;3.20;1.90;;;20.90;81.20;;;;;;5011892;28;20196;-76
2022/05/24 13:36:39;;;;;;;3.30;1.70;;;21.10;82.90;;;;;;5011547;28;20222;-73
2022/05/24 13:39:10;;;;;;;2.43;1.70;;;21.20;81.80;;;;;;5011586;28;20230;-73
2022/05/24 13:41:40;;;;;;;3.50;1.80;;;21.10;81.70;;;;;;4995929;28;20624;-71
2022/05/24 13:44:33;;;;;;;3.43;1.60;;;21.10;83.00;;;;;;5011398;28;20222;-70
2022/05/24 13:47:23;;;;;;;3.40;1.90;;;21.10;80.90;;;;;;5012723;28;20201;-70
2022/05/24 13:49:50;;;;;;;4.03;2.03;;;21.10;80.90;;;;;;5010788;28;20611;-71
2022/05/24 13:52:28;;;;;;;2.87;1.87;;;21.10;80.70;;;;;;5002578;28;20568;-71
2022/05/24 13:55:07;;;;;;;2.77;2.23;;;21.10;83.10;;;;;;4995549;28;20537;-71
2022/05/24 13:57:48;;;;;;;4.27;1.93;;;21.00;83.80;;;;;;4995906;28;20283;-73
2022/05/24 14:00:39;;;;;;;3.70;1.90;;;21.10;82.60;;;;;;4994430;28;20228;-69
2022/05/24 14:03:18;;;;;;;7.37;2.10;;;21.10;82.40;;;;;;4998730;28;20196;-74